createdAt,value
2017-10-23T00:01:03.177Z,2.00
2017-10-23T00:03:31.271Z,1.98
2017-10-23T00:05:59.339Z,1.52
2017-10-23T00:08:27.408Z,1.58
2017-10-23T00:10:55.512Z,1.40
2017-10-23T00:13:23.610Z,1.60
2017-10-23T00:15:51.692Z,2.08
2017-10-23T00:18:20.533Z,2.08
2017-10-23T00:20:48.626Z,2.25
2017-10-23T00:23:16.705Z,2.03
2017-10-23T00:25:44.855Z,2.17
2017-10-23T00:28:12.925Z,1.60
2017-10-23T00:30:41.005Z,2.22
2017-10-23T00:33:09.098Z,2.50
2017-10-23T00:35:37.947Z,1.45
2017-10-23T00:38:06.052Z,2.15
2017-10-23T00:40:35.484Z,1.60
2017-10-23T00:43:03.492Z,2.35
2017-10-23T00:45:31.588Z,1.33
2017-10-23T00:47:59.659Z,3.10
2017-10-23T00:50:27.771Z,1.60
2017-10-23T00:52:56.239Z,2.08
2017-10-23T00:55:25.124Z,1.98
2017-10-23T00:57:54.386Z,2.97
2017-10-23T01:00:22.474Z,1.95
2017-10-23T01:02:52.063Z,1.77
2017-10-23T01:05:20.159Z,2.53
2017-10-23T01:07:49.622Z,1.95
2017-10-23T01:10:17.612Z,2.37
2017-10-23T01:12:45.711Z,2.20
2017-10-23T01:15:13.811Z,1.83
2017-10-23T01:17:42.302Z,2.12
2017-10-23T01:20:11.749Z,2.50
2017-10-23T01:22:39.732Z,2.10
2017-10-23T01:25:09.348Z,2.10
2017-10-23T01:27:38.943Z,1.85
2017-10-23T01:30:08.408Z,2.87
2017-10-23T01:32:36.401Z,2.10
2017-10-23T01:35:04.482Z,4.68
2017-10-23T01:37:32.584Z,1.98
2017-10-23T01:40:01.434Z,3.00
2017-10-23T01:42:29.532Z,2.08
2017-10-23T01:44:57.623Z,2.45
2017-10-23T01:47:27.064Z,2.55
2017-10-23T01:49:55.086Z,1.92
2017-10-23T01:52:23.171Z,2.25
2017-10-23T01:54:52.392Z,2.37
2017-10-23T01:57:20.492Z,2.45
2017-10-23T01:59:48.559Z,2.95
2017-10-23T02:02:16.668Z,2.58
2017-10-23T02:04:45.135Z,1.98
2017-10-23T02:07:13.607Z,3.20
2017-10-23T02:09:41.711Z,2.55
2017-10-23T02:12:09.797Z,3.33
2017-10-23T02:14:39.397Z,2.20
2017-10-23T02:17:08.607Z,2.12
2017-10-23T02:19:36.712Z,3.12
2017-10-23T02:22:05.571Z,2.90
2017-10-23T02:24:35.010Z,2.10
2017-10-23T02:27:04.423Z,3.75
2017-10-23T02:29:33.883Z,3.20
2017-10-23T02:32:03.108Z,2.50
2017-10-23T02:34:31.183Z,2.90
2017-10-23T02:36:59.274Z,2.55
2017-10-23T02:39:27.351Z,2.35
2017-10-23T02:41:56.954Z,2.28
2017-10-23T02:44:26.388Z,2.40
2017-10-23T02:46:54.406Z,3.15
2017-10-23T02:49:22.879Z,2.95
2017-10-23T02:51:52.307Z,1.85
2017-10-23T02:54:20.312Z,2.65
2017-10-23T02:56:48.395Z,2.60
2017-10-23T02:59:17.822Z,2.40
2017-10-23T03:01:46.195Z,3.17
2017-10-23T03:04:15.651Z,2.75
2017-10-23T03:06:43.636Z,2.07
2017-10-23T03:09:11.713Z,2.58
2017-10-23T03:11:39.824Z,2.87
2017-10-23T03:14:07.899Z,2.22
2017-10-23T03:16:35.972Z,1.75
2017-10-23T03:19:04.090Z,2.37
2017-10-23T03:21:32.177Z,1.85
2017-10-23T03:24:01.039Z,2.30
2017-10-23T03:26:29.160Z,3.20
2017-10-23T03:28:58.003Z,2.70
2017-10-23T03:31:26.075Z,2.10
2017-10-23T03:33:54.581Z,2.15
2017-10-23T03:36:22.658Z,2.90
2017-10-23T03:38:50.753Z,2.60
2017-10-23T03:41:19.974Z,2.83
2017-10-23T03:43:48.075Z,2.30
2017-10-23T03:46:16.160Z,3.00
2017-10-23T03:48:44.239Z,1.85
2017-10-23T03:51:13.683Z,2.92
2017-10-23T03:53:41.688Z,3.28
2017-10-23T03:56:09.775Z,3.80
2017-10-23T03:58:37.864Z,3.85
2017-10-23T04:01:05.947Z,3.10
2017-10-23T04:03:34.447Z,2.87
2017-10-23T04:06:03.287Z,2.65
2017-10-23T04:08:31.363Z,2.60
2017-10-23T04:10:59.458Z,3.05
2017-10-23T04:13:27.544Z,3.42
2017-10-23T04:15:56.783Z,3.05
2017-10-23T04:18:24.855Z,2.80
2017-10-23T04:20:52.942Z,3.00
2017-10-23T04:23:21.047Z,4.37
2017-10-23T04:25:49.512Z,2.83
2017-10-23T04:28:17.591Z,2.22
2017-10-23T04:30:45.684Z,2.42
2017-10-23T04:33:14.523Z,2.95
2017-10-23T04:35:42.631Z,3.70
2017-10-23T04:38:10.726Z,2.30
2017-10-23T04:40:39.294Z,3.03
2017-10-23T04:43:07.354Z,2.97
2017-10-23T04:45:35.437Z,2.50
2017-10-23T04:48:03.556Z,3.55
2017-10-23T04:50:32.987Z,3.87
2017-10-23T04:53:00.986Z,4.82
2017-10-23T04:55:30.446Z,3.53
2017-10-23T04:57:58.438Z,3.85
2017-10-23T05:00:26.539Z,2.93
2017-10-23T05:02:55.383Z,3.62
2017-10-23T05:05:24.239Z,3.80
2017-10-23T05:07:53.680Z,3.55
2017-10-23T05:10:21.685Z,3.22
2017-10-23T05:12:49.767Z,3.85
2017-10-23T05:15:19.375Z,3.78
2017-10-23T05:17:48.215Z,3.47
2017-10-23T05:20:16.291Z,4.28
2017-10-23T05:22:44.398Z,3.45
2017-10-23T05:25:12.475Z,3.75
2017-10-23T05:27:40.551Z,4.87
2017-10-23T05:30:09.040Z,3.55
2017-10-23T05:32:37.904Z,3.30
2017-10-23T05:35:08.943Z,4.65
2017-10-23T05:37:37.812Z,3.22
2017-10-23T05:40:07.029Z,3.50
2017-10-23T05:42:35.141Z,5.22
2017-10-23T05:45:04.737Z,2.58
2017-10-23T05:47:33.979Z,3.40
2017-10-23T05:50:02.062Z,3.53
2017-10-23T05:52:30.552Z,3.72
2017-10-23T05:54:58.654Z,3.30
2017-10-23T05:57:26.759Z,2.37
2017-10-23T05:59:54.848Z,3.72
2017-10-23T06:02:22.955Z,3.57
2017-10-23T06:04:51.050Z,3.25
2017-10-23T06:07:19.927Z,4.68
2017-10-23T06:09:48.015Z,3.17
2017-10-23T06:12:16.875Z,3.28
2017-10-23T06:14:44.980Z,2.53
2017-10-23T06:17:13.852Z,3.20
2017-10-23T06:19:41.959Z,3.60
2017-10-23T06:22:10.051Z,2.62
2017-10-23T06:24:38.578Z,3.17
2017-10-23T06:27:08.011Z,3.40
2017-10-23T06:29:36.441Z,2.40
2017-10-23T06:32:04.523Z,3.30
2017-10-23T06:34:32.600Z,2.60
2017-10-23T06:37:02.212Z,4.10
2017-10-23T06:39:31.642Z,3.03
2017-10-23T06:42:01.008Z,3.00
2017-10-23T06:44:30.539Z,3.75
2017-10-23T06:46:58.611Z,3.90
2017-10-23T06:49:26.725Z,3.60
2017-10-23T06:51:54.809Z,4.10
2017-10-23T06:54:23.647Z,3.60
2017-10-23T06:56:52.887Z,3.90
2017-10-23T06:59:20.979Z,3.30
2017-10-23T07:01:50.411Z,2.73
2017-10-23T07:04:20.019Z,3.57
2017-10-23T07:06:48.467Z,3.10
2017-10-23T07:09:16.547Z,3.47
2017-10-23T07:11:44.651Z,3.47
2017-10-23T07:14:12.743Z,3.75
2017-10-23T07:16:41.595Z,3.15
2017-10-23T07:19:11.176Z,3.47
2017-10-23T07:21:39.275Z,3.50
2017-10-23T07:24:07.351Z,3.85
2017-10-23T07:26:35.806Z,4.22
2017-10-23T07:29:04.620Z,4.12
2017-10-23T07:31:32.719Z,4.28
2017-10-23T07:34:01.195Z,3.67
2017-10-23T07:36:29.684Z,3.20
2017-10-23T07:38:58.163Z,3.30
2017-10-23T07:41:27.422Z,4.10
2017-10-23T07:43:55.520Z,3.37
2017-10-23T07:46:23.596Z,3.08
2017-10-23T07:48:51.699Z,3.55
2017-10-23T07:51:19.787Z,2.67
2017-10-23T07:53:48.653Z,3.10
2017-10-23T07:56:17.500Z,3.17
2017-10-23T07:58:46.743Z,3.10
2017-10-23T08:01:15.596Z,3.00
2017-10-23T08:03:43.691Z,3.42
2017-10-23T08:06:12.535Z,3.53
2017-10-23T08:08:41.399Z,3.10
2017-10-23T08:11:09.479Z,3.37
2017-10-23T08:13:38.340Z,3.67
2017-10-23T08:16:07.187Z,3.40
2017-10-23T08:18:35.295Z,4.03
2017-10-23T08:21:04.891Z,3.83
2017-10-23T08:23:33.767Z,3.10
2017-10-23T08:26:02.632Z,3.62
2017-10-23T08:28:30.731Z,3.22
2017-10-23T08:30:58.840Z,3.50
2017-10-23T08:33:28.290Z,3.12
2017-10-23T08:35:56.312Z,3.65
2017-10-23T08:38:25.750Z,3.72
2017-10-23T08:40:54.144Z,3.08
2017-10-23T08:43:23.388Z,3.60
2017-10-23T08:45:52.827Z,4.03
2017-10-23T08:48:20.839Z,3.30
2017-10-23T08:50:48.923Z,4.15
2017-10-23T08:53:18.375Z,3.97
2017-10-23T08:55:46.371Z,2.80
2017-10-23T08:58:14.467Z,3.40
2017-10-23T09:00:43.695Z,4.20
2017-10-23T09:03:12.568Z,9.85
2017-10-23T09:05:40.655Z,4.65
2017-10-23T09:08:09.564Z,4.00
2017-10-23T09:10:38.068Z,5.72
2017-10-23T09:13:06.151Z,3.75
2017-10-23T09:15:35.019Z,3.65
2017-10-23T09:18:03.112Z,3.47
2017-10-23T09:20:32.559Z,4.12
2017-10-23T09:23:00.952Z,3.08
2017-10-23T09:25:29.847Z,2.83
2017-10-23T09:27:58.691Z,3.20
2017-10-23T09:30:26.783Z,3.05
2017-10-23T09:32:56.403Z,3.55
2017-10-23T09:35:25.991Z,2.12
2017-10-23T09:37:54.092Z,2.87
2017-10-23T09:40:23.706Z,2.60
2017-10-23T09:42:52.556Z,2.65
2017-10-23T09:45:21.055Z,2.55
2017-10-23T09:47:49.145Z,2.70
2017-10-23T09:50:18.018Z,2.50
2017-10-23T09:52:46.513Z,1.95
2017-10-23T09:55:15.395Z,2.67
2017-10-23T09:57:44.251Z,2.70
2017-10-23T10:00:12.336Z,2.97
2017-10-23T10:02:40.447Z,2.53
2017-10-23T10:05:08.933Z,2.10
2017-10-23T10:07:37.011Z,2.00
2017-10-23T10:10:05.120Z,2.05
2017-10-23T10:12:33.225Z,1.77
2017-10-23T10:15:01.328Z,2.12
2017-10-23T10:17:29.411Z,2.20
2017-10-23T10:19:57.536Z,1.95
2017-10-23T10:22:25.619Z,2.25
2017-10-23T10:24:54.856Z,1.95
2017-10-23T10:27:23.351Z,1.67
2017-10-23T10:29:51.434Z,1.77
2017-10-23T10:32:19.539Z,1.75
2017-10-23T10:34:47.625Z,2.55
2017-10-23T10:37:17.054Z,1.95
2017-10-23T10:39:45.060Z,2.00
2017-10-23T10:42:13.907Z,1.85
2017-10-23T10:44:42.040Z,2.10
2017-10-23T10:47:10.871Z,3.28
2017-10-23T10:49:38.966Z,2.65
2017-10-23T10:52:07.064Z,2.03
2017-10-23T10:54:35.170Z,1.95
2017-10-23T10:57:04.024Z,1.60
2017-10-23T10:59:32.127Z,2.05
2017-10-23T11:02:01.000Z,2.00
2017-10-23T11:04:29.092Z,1.35
2017-10-23T11:06:58.336Z,1.45
2017-10-23T11:09:26.439Z,1.55
2017-10-23T11:11:55.679Z,1.55
2017-10-23T11:14:25.286Z,1.42
2017-10-23T11:16:53.399Z,2.87
2017-10-23T11:19:22.631Z,1.15
2017-10-23T11:21:51.116Z,2.03
2017-10-23T11:24:20.583Z,1.40
2017-10-23T11:26:48.608Z,1.30
2017-10-23T11:29:17.454Z,1.35
2017-10-23T11:31:45.558Z,1.58
2017-10-23T11:34:14.404Z,1.33
2017-10-23T11:36:43.288Z,1.10
2017-10-23T11:39:12.728Z,1.20
2017-10-23T11:41:41.507Z,1.37
2017-10-23T11:44:09.604Z,1.12
2017-10-23T11:46:38.075Z,1.58
2017-10-23T11:49:06.184Z,1.17
2017-10-23T11:51:34.290Z,1.60
2017-10-23T11:54:03.513Z,1.42
2017-10-23T11:56:32.012Z,1.75
2017-10-23T11:59:01.279Z,1.30
2017-10-23T12:01:30.735Z,1.48
2017-10-23T12:03:58.737Z,1.20
2017-10-23T12:06:26.850Z,1.00
2017-10-23T12:08:54.954Z,1.65
2017-10-23T12:11:23.035Z,1.20
2017-10-23T12:13:51.918Z,1.27
2017-10-23T12:16:20.009Z,1.48
2017-10-23T12:18:48.120Z,1.42
2017-10-23T12:21:17.572Z,1.50
2017-10-23T12:23:45.571Z,1.55
2017-10-23T12:26:13.679Z,1.40
2017-10-23T12:28:43.280Z,1.60
2017-10-23T12:31:11.775Z,1.62
2017-10-23T12:33:40.633Z,1.50
2017-10-23T12:36:08.726Z,1.25
2017-10-23T12:38:36.819Z,1.50
2017-10-23T12:41:06.044Z,1.30
2017-10-23T12:43:35.495Z,1.50
2017-10-23T12:46:04.263Z,1.35
2017-10-23T12:48:32.373Z,1.08
2017-10-23T12:51:01.223Z,1.60
2017-10-23T12:53:30.119Z,1.40
2017-10-23T12:55:58.977Z,1.60
2017-10-23T12:58:27.065Z,1.73
2017-10-23T13:00:55.167Z,1.60
2017-10-23T13:03:23.259Z,1.90
2017-10-23T13:05:53.124Z,1.37
2017-10-23T13:08:21.559Z,1.83
2017-10-23T13:10:51.171Z,1.30
2017-10-23T13:13:20.396Z,1.27
2017-10-23T13:15:49.644Z,1.20
2017-10-23T13:18:17.733Z,1.30
2017-10-23T13:20:46.604Z,1.92
2017-10-23T13:23:16.068Z,1.77
2017-10-23T13:25:44.466Z,1.60
2017-10-23T13:28:12.548Z,2.30
2017-10-23T13:30:40.659Z,1.65
2017-10-23T13:33:09.898Z,2.08
2017-10-23T13:35:37.997Z,1.83
2017-10-23T13:38:06.087Z,1.10
2017-10-23T13:40:34.183Z,1.40
2017-10-23T13:43:02.277Z,1.30
2017-10-23T13:45:30.399Z,1.10
2017-10-23T13:47:58.886Z,1.33
2017-10-23T13:50:26.974Z,1.43
2017-10-23T13:52:55.851Z,1.20
2017-10-23T13:55:23.959Z,2.05
2017-10-23T13:57:52.447Z,1.45
2017-10-23T14:00:20.536Z,1.50
2017-10-23T14:02:49.405Z,1.20
2017-10-23T14:05:18.645Z,1.10
2017-10-23T14:07:46.734Z,1.20
2017-10-23T14:10:14.844Z,1.55
2017-10-23T14:12:43.708Z,1.50
2017-10-23T14:15:12.574Z,1.45
2017-10-23T14:17:40.672Z,1.33
2017-10-23T14:20:09.552Z,1.17
2017-10-23T14:22:39.159Z,1.40
2017-10-23T14:25:07.259Z,1.30
2017-10-23T14:27:36.172Z,1.52
2017-10-23T14:30:04.282Z,1.20
2017-10-23T14:32:32.393Z,1.58
2017-10-23T14:35:00.901Z,1.42
2017-10-23T14:37:29.756Z,1.40
2017-10-23T14:39:58.619Z,1.10
2017-10-23T14:42:26.735Z,2.30
2017-10-23T14:44:54.819Z,1.27
2017-10-23T14:47:22.908Z,1.80
2017-10-23T14:49:51.808Z,1.50
2017-10-23T14:52:20.290Z,1.40
2017-10-23T14:54:48.432Z,1.50
2017-10-23T14:57:16.909Z,1.37
2017-10-23T14:59:45.752Z,1.20
2017-10-23T15:02:13.863Z,1.75
2017-10-23T15:04:43.103Z,1.40
2017-10-23T15:07:11.207Z,1.42
2017-10-23T15:09:39.685Z,1.37
2017-10-23T15:12:07.773Z,1.65
2017-10-23T15:14:35.877Z,1.35
2017-10-23T15:17:05.318Z,1.10
2017-10-23T15:19:33.332Z,1.35
2017-10-23T15:22:02.584Z,1.25
2017-10-23T15:24:30.668Z,1.50
2017-10-23T15:26:58.767Z,1.30
2017-10-23T15:29:28.230Z,1.80
2017-10-23T15:31:56.218Z,2.47
2017-10-23T15:34:25.470Z,2.33
2017-10-23T15:36:54.336Z,1.90
2017-10-23T15:39:23.957Z,3.30
2017-10-23T15:41:52.047Z,6.85
2017-10-23T15:44:20.153Z,6.23
2017-10-23T15:46:49.609Z,6.87
2017-10-23T15:49:17.601Z,6.45
2017-10-23T15:51:45.687Z,8.45
2017-10-23T15:54:13.813Z,6.60
2017-10-23T15:56:43.258Z,7.05
2017-10-23T15:59:11.267Z,9.35
2017-10-23T16:01:39.384Z,9.97
2017-10-23T16:04:08.845Z,6.87
2017-10-23T16:06:37.600Z,6.60
2017-10-23T16:09:06.081Z,5.15
2017-10-23T16:11:34.199Z,8.43
2017-10-23T16:14:03.056Z,5.53
2017-10-23T16:16:31.624Z,4.85
2017-10-23T16:18:59.691Z,3.45
2017-10-23T16:21:28.907Z,4.62
2017-10-23T16:23:57.028Z,3.83
2017-10-23T16:26:26.450Z,4.45
2017-10-23T16:28:54.455Z,3.80
2017-10-23T16:31:22.956Z,3.93
2017-10-23T16:33:52.543Z,4.18
2017-10-23T16:36:21.066Z,4.05
2017-10-23T16:38:49.911Z,4.80
2017-10-23T16:41:18.003Z,4.80
2017-10-23T16:43:46.108Z,5.05
2017-10-23T16:46:14.965Z,3.70
2017-10-23T16:48:43.443Z,6.50
2017-10-23T16:51:11.579Z,9.07
2017-10-23T16:53:39.655Z,7.67
2017-10-23T16:56:07.743Z,4.57
2017-10-23T16:58:35.854Z,3.35
2017-10-23T17:01:05.475Z,4.75
2017-10-23T17:03:35.083Z,3.85
2017-10-23T17:06:04.691Z,3.15
2017-10-23T17:08:33.561Z,2.85
2017-10-23T17:11:03.004Z,4.90
2017-10-23T17:13:31.444Z,3.42
2017-10-23T17:15:59.532Z,4.18
2017-10-23T17:18:28.962Z,4.22
2017-10-23T17:20:56.983Z,4.15
2017-10-23T17:23:25.080Z,3.80
2017-10-23T17:25:53.956Z,4.60
2017-10-23T17:28:22.440Z,3.63
2017-10-23T17:30:51.346Z,4.80
2017-10-23T17:33:19.820Z,5.37
2017-10-23T17:35:49.267Z,5.60
2017-10-23T17:38:17.349Z,7.25
2017-10-23T17:40:46.940Z,9.80
2017-10-23T17:43:15.411Z,4.37
2017-10-23T17:45:43.496Z,4.30
2017-10-23T17:48:11.976Z,4.53
2017-10-23T17:50:40.100Z,3.23
2017-10-23T17:53:08.592Z,3.78
2017-10-23T17:55:37.444Z,6.57
2017-10-23T17:58:06.912Z,4.55
2017-10-23T18:00:34.904Z,4.37
2017-10-23T18:03:03.000Z,5.85
2017-10-23T18:05:31.096Z,4.40
2017-10-23T18:07:59.172Z,4.07
2017-10-23T18:10:28.066Z,4.95
2017-10-23T18:12:56.931Z,3.65
2017-10-23T18:15:25.024Z,4.55
2017-10-23T18:17:53.887Z,5.03
2017-10-23T18:20:22.008Z,5.18
2017-10-23T18:22:50.478Z,4.70
2017-10-23T18:25:19.323Z,4.78
2017-10-23T18:27:47.846Z,4.72
2017-10-23T18:30:17.278Z,4.07
2017-10-23T18:32:45.269Z,5.15
2017-10-23T18:35:13.452Z,4.10
2017-10-23T18:37:41.927Z,5.35
2017-10-23T18:40:10.047Z,4.35
2017-10-23T18:42:38.131Z,4.35
2017-10-23T18:45:06.985Z,3.80
2017-10-23T18:47:35.542Z,3.70
2017-10-23T18:50:03.608Z,3.50
2017-10-23T18:52:32.860Z,3.25
2017-10-23T18:55:01.064Z,3.30
2017-10-23T18:57:29.208Z,3.75
2017-10-23T18:59:57.310Z,3.80
2017-10-23T19:02:25.395Z,3.30
2017-10-23T19:04:53.491Z,3.10
2017-10-23T19:07:21.594Z,3.20
2017-10-23T19:09:49.713Z,3.05
2017-10-23T19:12:18.187Z,3.37
2017-10-23T19:14:46.266Z,4.40
2017-10-23T19:17:14.369Z,3.00
2017-10-23T19:19:42.448Z,3.65
2017-10-23T19:22:10.971Z,2.80
2017-10-23T19:24:39.040Z,3.65
2017-10-23T19:27:07.899Z,3.35
2017-10-23T19:29:35.986Z,2.85
2017-10-23T19:32:04.095Z,2.70
2017-10-23T19:34:32.583Z,2.58
2017-10-23T19:37:00.668Z,3.03
2017-10-23T19:39:28.771Z,3.15
2017-10-23T19:41:56.860Z,3.28
2017-10-23T19:44:24.955Z,3.40
2017-10-23T19:46:53.440Z,3.15
2017-10-23T19:49:22.288Z,3.12
2017-10-23T19:51:50.378Z,3.20
2017-10-23T19:54:18.455Z,3.47
2017-10-23T19:56:47.094Z,2.92
2017-10-23T19:59:16.526Z,3.35
2017-10-23T20:01:44.539Z,3.05
2017-10-23T20:04:14.959Z,2.85
2017-10-23T20:06:43.025Z,3.22
2017-10-23T20:09:11.864Z,3.03
2017-10-23T20:11:40.356Z,3.25
2017-10-23T20:14:08.455Z,3.37
2017-10-23T20:16:36.538Z,2.90
2017-10-23T20:19:05.403Z,2.97
2017-10-23T20:21:33.907Z,2.75
2017-10-23T20:24:03.331Z,2.90
2017-10-23T20:26:32.715Z,3.10
2017-10-23T20:29:01.467Z,2.60
2017-10-23T20:31:29.543Z,3.20
2017-10-23T20:33:57.642Z,2.73
2017-10-23T20:36:27.124Z,3.78
2017-10-23T20:38:55.117Z,2.85
2017-10-23T20:41:23.959Z,2.85
2017-10-23T20:43:52.064Z,3.30
2017-10-23T20:46:20.132Z,3.40
2017-10-23T20:48:48.979Z,3.30
2017-10-23T20:51:17.102Z,3.20
2017-10-23T20:53:45.208Z,3.50
2017-10-23T20:56:15.428Z,2.90
2017-10-23T20:58:43.443Z,3.35
2017-10-23T21:01:11.566Z,2.97
2017-10-23T21:03:39.639Z,3.33
2017-10-23T21:06:09.223Z,4.10
2017-10-23T21:08:37.331Z,3.25
2017-10-23T21:11:05.427Z,4.03
2017-10-23T21:13:34.214Z,3.90
2017-10-23T21:16:02.286Z,3.20
2017-10-23T21:18:30.368Z,3.05
2017-10-23T21:20:58.464Z,3.87
2017-10-23T21:23:26.548Z,3.85
2017-10-23T21:25:55.418Z,3.55
2017-10-23T21:28:23.494Z,3.40
2017-10-23T21:30:51.595Z,2.72
2017-10-23T21:33:20.445Z,3.33
2017-10-23T21:35:48.539Z,4.72
2017-10-23T21:38:16.639Z,2.95
2017-10-23T21:40:45.487Z,3.30
2017-10-23T21:43:13.591Z,3.40
2017-10-23T21:45:42.435Z,3.33
2017-10-23T21:48:11.887Z,3.65
2017-10-23T21:50:40.643Z,3.70
2017-10-23T21:53:08.725Z,3.78
2017-10-23T21:55:36.823Z,3.72
2017-10-23T21:58:05.662Z,4.78
2017-10-23T22:00:33.784Z,4.97
2017-10-23T22:03:03.005Z,3.87
2017-10-23T22:05:32.449Z,3.85
2017-10-23T22:08:01.220Z,4.35
2017-10-23T22:10:29.300Z,3.65
2017-10-23T22:12:57.415Z,3.90
2017-10-23T22:15:25.498Z,4.80
2017-10-23T22:17:54.335Z,3.72
2017-10-23T22:20:23.204Z,4.57
2017-10-23T22:22:51.286Z,4.75
2017-10-23T22:25:19.391Z,4.00
2017-10-23T22:27:47.467Z,3.70
2017-10-23T22:30:15.567Z,4.15
2017-10-23T22:32:44.411Z,4.65
2017-10-23T22:35:12.527Z,3.75
2017-10-23T22:37:41.375Z,4.30
2017-10-23T22:40:09.463Z,4.32
2017-10-23T22:42:38.347Z,3.80
2017-10-23T22:45:06.447Z,4.17
2017-10-23T22:47:35.309Z,3.70
2017-10-23T22:50:03.407Z,4.37
2017-10-23T22:52:31.503Z,3.92
2017-10-23T22:55:00.351Z,4.47
2017-10-23T22:57:28.447Z,4.00
2017-10-23T22:59:56.542Z,3.90
2017-10-23T23:02:24.625Z,4.22
2017-10-23T23:04:53.119Z,4.22
2017-10-23T23:07:21.223Z,3.55
2017-10-23T23:09:50.650Z,3.53
2017-10-23T23:12:19.057Z,3.60
2017-10-23T23:14:48.662Z,3.80
2017-10-23T23:17:17.511Z,4.15
2017-10-23T23:19:45.614Z,3.53
2017-10-23T23:22:14.458Z,4.05
2017-10-23T23:24:42.568Z,4.03
2017-10-23T23:27:11.414Z,4.57
2017-10-23T23:29:39.495Z,4.20
2017-10-23T23:32:07.596Z,4.18
2017-10-23T23:34:35.668Z,3.92
2017-10-23T23:37:03.764Z,3.97
2017-10-23T23:39:32.607Z,3.78
2017-10-23T23:42:00.729Z,4.20
2017-10-23T23:44:29.581Z,3.97
2017-10-23T23:46:57.662Z,4.12
2017-10-23T23:49:25.721Z,4.40
2017-10-23T23:51:53.821Z,3.92
2017-10-23T23:54:23.407Z,3.62
2017-10-23T23:56:51.503Z,3.58
2017-10-23T23:59:20.934Z,4.47
